createdAt,value
2019-03-29T16:07:28.379Z,51.60
2019-03-29T16:09:55.073Z,41.20
2019-03-29T16:12:21.391Z,40.50
2019-03-29T16:14:47.902Z,40.40
2019-03-29T16:17:14.090Z,40.60
2019-03-29T16:19:40.221Z,40.90
2019-03-29T16:22:06.380Z,40.90
2019-03-29T16:24:32.572Z,41.50
2019-03-29T16:26:58.709Z,42.10
2019-03-29T16:29:24.899Z,42.90
2019-03-29T16:31:51.122Z,43.40
2019-03-29T16:34:17.584Z,44.10
2019-03-29T16:36:43.824Z,44.70
2019-03-29T16:39:10.033Z,45.30
2019-03-29T16:41:36.246Z,45.70
2019-03-29T16:44:03.283Z,46.00
2019-03-29T16:46:29.680Z,46.20
2019-03-29T16:48:55.877Z,46.50
2019-03-29T16:51:22.225Z,46.80
2019-03-29T16:53:48.393Z,46.90
2019-03-29T16:56:14.875Z,47.20
2019-03-29T16:58:41.388Z,47.20
2019-03-29T17:01:07.957Z,47.60
2019-03-29T17:03:34.477Z,48.00
2019-03-29T17:06:00.966Z,48.20
2019-03-29T17:08:27.275Z,48.30
2019-03-29T17:10:53.486Z,48.60
2019-03-29T17:13:19.663Z,48.70
2019-03-29T17:15:45.770Z,49.00
2019-03-29T17:18:11.980Z,49.40
2019-03-29T17:20:38.090Z,49.70
2019-03-29T17:23:04.228Z,50.00
2019-03-29T17:25:30.786Z,50.10
2019-03-29T17:27:57.079Z,50.20
2019-03-29T17:30:40.116Z,50.30
2019-03-29T17:33:06.398Z,50.30
2019-03-29T17:35:32.532Z,50.50
2019-03-29T17:37:58.661Z,50.60
2019-03-29T17:40:24.749Z,50.90
2019-03-29T17:42:50.871Z,51.20
2019-03-29T17:45:17.196Z,51.50
2019-03-29T17:47:43.412Z,51.60
2019-03-29T17:50:09.917Z,51.70
2019-03-29T17:52:36.063Z,52.20
2019-03-29T17:55:05.339Z,52.50
2019-03-29T17:57:31.562Z,53.10
2019-03-29T17:59:57.904Z,54.10
2019-03-29T18:02:24.304Z,54.40
2019-03-29T18:04:50.514Z,55.40
2019-03-29T18:07:16.736Z,55.90
2019-03-29T18:09:42.859Z,56.40
2019-03-29T18:12:11.363Z,57.00
2019-03-29T18:14:37.013Z,57.30
2019-03-29T18:17:03.140Z,57.80
2019-03-29T18:19:29.361Z,58.20
2019-03-29T18:21:55.455Z,58.70
2019-03-29T18:24:21.578Z,59.20
2019-03-29T18:26:47.680Z,59.50
2019-03-29T18:29:13.900Z,59.90
2019-03-29T18:31:40.007Z,60.20
2019-03-29T18:34:06.122Z,60.60
2019-03-29T18:36:33.057Z,60.80
2019-03-29T18:38:59.370Z,61.10
2019-03-29T18:41:25.467Z,61.50
2019-03-29T18:43:51.561Z,61.90
2019-03-29T18:46:17.689Z,62.10
2019-03-29T18:48:43.786Z,62.40
2019-03-29T18:51:09.895Z,62.60
2019-03-29T18:53:35.990Z,62.90
2019-03-29T18:56:02.389Z,63.30
2019-03-29T18:58:28.614Z,63.40
2019-03-29T19:00:54.818Z,63.50
2019-03-29T19:03:21.042Z,63.60
2019-03-29T19:05:47.299Z,63.90
2019-03-29T19:08:13.596Z,64.00
2019-03-29T19:10:42.348Z,64.20
2019-03-29T19:13:08.519Z,64.40
2019-03-29T19:15:34.616Z,64.70
2019-03-29T19:18:01.404Z,64.70
2019-03-29T19:20:28.381Z,65.00
2019-03-29T19:22:54.782Z,65.20
2019-03-29T19:25:20.880Z,65.50
2019-03-29T19:27:47.009Z,65.80
2019-03-29T19:30:16.396Z,66.00
2019-03-29T19:33:02.434Z,66.20
2019-03-29T19:35:28.558Z,66.40
2019-03-29T19:37:54.785Z,66.60
2019-03-29T19:40:23.252Z,66.70
2019-03-29T19:42:49.445Z,66.90
2019-03-29T19:45:16.657Z,67.10
2019-03-29T19:47:42.928Z,67.30
2019-03-29T19:50:09.967Z,67.70
2019-03-29T19:52:36.308Z,68.00
2019-03-29T19:55:03.871Z,68.10
2019-03-29T19:57:30.363Z,68.30
2019-03-29T19:59:56.617Z,68.40
2019-03-29T20:02:22.866Z,68.60
2019-03-29T20:04:53.173Z,68.80
2019-03-29T20:07:20.431Z,69.00
2019-03-29T20:09:46.734Z,69.10
2019-03-29T20:12:12.846Z,69.20
2019-03-29T20:14:38.959Z,69.50
2019-03-29T20:17:05.088Z,69.60
2019-03-29T20:19:31.273Z,69.80
2019-03-29T20:21:57.401Z,70.00
2019-03-29T20:24:23.496Z,70.20
2019-03-29T20:26:49.625Z,70.30
2019-03-29T20:29:15.740Z,70.60
2019-03-29T20:31:41.852Z,70.70
2019-03-29T20:34:08.026Z,71.00
2019-03-29T20:36:34.194Z,72.00
2019-03-29T20:39:00.310Z,71.40
2019-03-29T20:41:26.392Z,71.40
2019-03-29T20:43:52.521Z,71.70
2019-03-29T20:46:18.611Z,71.90
2019-03-29T20:48:44.745Z,72.00
2019-03-29T20:51:10.834Z,72.10
2019-03-29T20:53:36.936Z,72.20
2019-03-29T20:56:06.279Z,72.20
2019-03-29T20:58:31.070Z,72.40
2019-03-29T21:00:57.188Z,72.50
2019-03-29T21:03:23.318Z,72.60
2019-03-29T21:05:49.410Z,72.70
2019-03-29T21:08:15.531Z,73.00
2019-03-29T21:10:55.051Z,73.10
2019-03-29T21:13:09.743Z,73.30
2019-03-29T21:15:35.869Z,73.40
2019-03-29T21:18:02.087Z,73.60
2019-03-29T21:20:28.182Z,73.90
2019-03-29T21:22:54.301Z,74.10
2019-03-29T21:25:20.519Z,74.20
2019-03-29T21:27:46.706Z,74.40
2019-03-29T21:30:14.523Z,74.50
2019-03-29T21:32:40.733Z,74.50
2019-03-29T21:35:07.671Z,74.80
2019-03-29T21:37:34.667Z,75.20
2019-03-29T21:40:00.800Z,75.30
2019-03-29T21:42:26.894Z,75.60
2019-03-29T21:44:52.989Z,75.70
2019-03-29T21:47:19.098Z,75.90
2019-03-29T21:49:45.262Z,75.90
2019-03-29T21:52:11.473Z,76.00
2019-03-29T21:54:37.670Z,76.00
2019-03-29T21:57:03.839Z,76.10
2019-03-29T21:59:29.946Z,76.90
2019-03-29T22:01:56.075Z,76.50
2019-03-29T22:04:22.178Z,76.50
2019-03-29T22:06:48.407Z,76.70
2019-03-29T22:09:14.894Z,76.90
2019-03-29T22:11:41.026Z,76.90
2019-03-29T22:14:07.204Z,77.10
2019-03-29T22:16:33.314Z,77.20
2019-03-29T22:18:59.438Z,77.40
2019-03-29T22:21:25.572Z,77.40
2019-03-29T22:23:51.835Z,77.50
2019-03-29T22:26:18.043Z,77.10
2019-03-29T22:28:44.163Z,77.90
2019-03-29T22:31:10.260Z,78.00
2019-03-29T22:33:38.741Z,78.80
2019-03-29T22:36:04.870Z,78.80
2019-03-29T22:38:30.992Z,78.30
2019-03-29T22:40:57.091Z,78.50
2019-03-29T22:43:23.211Z,79.30
2019-03-29T22:45:49.306Z,78.90
2019-03-29T22:48:15.450Z,78.90
2019-03-29T22:50:41.655Z,79.20
2019-03-29T22:53:07.760Z,79.10
2019-03-29T22:55:34.295Z,79.30
2019-03-29T22:58:00.387Z,79.40
2019-03-29T23:00:32.431Z,79.50
2019-03-29T23:02:58.597Z,79.60
2019-03-29T23:05:24.825Z,79.70
2019-03-29T23:07:50.939Z,79.90
2019-03-29T23:10:17.341Z,80.00
2019-03-29T23:12:43.458Z,80.10
2019-03-29T23:15:09.860Z,80.20
2019-03-29T23:17:35.971Z,80.30
2019-03-29T23:20:03.743Z,80.40
2019-03-29T23:22:29.879Z,80.50
2019-03-29T23:24:55.982Z,81.20
2019-03-29T23:27:22.196Z,80.60
2019-03-29T23:29:48.290Z,80.60
2019-03-29T23:32:14.401Z,80.60
2019-03-29T23:34:40.519Z,80.70
2019-03-29T23:37:06.628Z,80.70
2019-03-29T23:39:32.746Z,80.90
2019-03-29T23:41:58.845Z,80.90
2019-03-29T23:44:24.957Z,80.90
2019-03-29T23:46:51.087Z,81.00
2019-03-29T23:49:21.392Z,81.00
2019-03-29T23:51:45.240Z,81.10
2019-03-29T23:54:11.366Z,80.90
2019-03-29T23:56:37.462Z,80.80
2019-03-29T23:59:03.683Z,80.80
